createdAt,value
2018-04-30T00:00:13.009Z,15.39
2018-04-30T00:01:13.244Z,15.44
2018-04-30T00:02:13.485Z,15.29
2018-04-30T00:03:13.724Z,15.32
2018-04-30T00:04:13.966Z,15.16
2018-04-30T00:05:14.211Z,15.19
2018-04-30T00:06:14.456Z,15.21
2018-04-30T00:07:14.690Z,15.07
2018-04-30T00:08:14.930Z,15.09
2018-04-30T00:09:15.167Z,14.98
2018-04-30T00:10:15.410Z,14.98
2018-04-30T00:11:15.643Z,14.96
2018-04-30T00:12:15.892Z,14.89
2018-04-30T00:13:16.120Z,14.89
2018-04-30T00:14:16.395Z,14.94
2018-04-30T00:15:16.626Z,14.81
2018-04-30T00:16:16.839Z,14.80
2018-04-30T00:17:17.076Z,14.77
2018-04-30T00:18:17.318Z,14.80
2018-04-30T00:19:17.545Z,14.73
2018-04-30T00:20:17.806Z,14.78
2018-04-30T00:21:18.039Z,14.69
2018-04-30T00:22:18.257Z,14.77
2018-04-30T00:23:18.491Z,14.73
2018-04-30T00:24:18.719Z,14.70
2018-04-30T00:25:18.955Z,14.62
2018-04-30T00:26:19.199Z,14.70
2018-04-30T00:27:19.435Z,14.68
2018-04-30T00:28:19.674Z,14.73
2018-04-30T00:29:19.940Z,14.73
2018-04-30T00:30:20.173Z,14.86
2018-04-30T00:31:20.400Z,14.83
2018-04-30T00:32:20.621Z,14.77
2018-04-30T00:33:20.853Z,14.75
2018-04-30T00:34:21.105Z,14.70
2018-04-30T00:35:21.351Z,14.69
2018-04-30T00:36:21.587Z,14.69
2018-04-30T00:37:21.819Z,14.58
2018-04-30T00:38:22.056Z,14.54
2018-04-30T00:39:22.312Z,14.50
2018-04-30T00:40:22.545Z,14.51
2018-04-30T00:41:22.753Z,14.46
2018-04-30T00:42:23.002Z,14.50
2018-04-30T00:43:23.250Z,14.54
2018-04-30T00:44:23.481Z,14.47
2018-04-30T00:45:23.711Z,14.47
2018-04-30T00:46:23.957Z,14.39
2018-04-30T00:47:24.193Z,14.39
2018-04-30T00:48:24.507Z,14.46
2018-04-30T00:49:24.675Z,14.43
2018-04-30T00:50:24.908Z,14.52
2018-04-30T00:51:25.150Z,14.46
2018-04-30T00:52:25.403Z,14.37
2018-04-30T00:53:25.634Z,14.45
2018-04-30T00:54:25.886Z,14.51
2018-04-30T00:55:26.111Z,14.57
2018-04-30T00:56:26.351Z,14.60
2018-04-30T00:57:26.582Z,14.62
2018-04-30T00:58:26.825Z,14.69
2018-04-30T00:59:27.067Z,14.64
2018-04-30T01:00:27.285Z,14.65
2018-04-30T01:01:27.528Z,14.70
2018-04-30T01:02:27.769Z,14.69
2018-04-30T01:03:28.032Z,14.78
2018-04-30T01:04:28.234Z,14.81
2018-04-30T01:05:28.487Z,14.91
2018-04-30T01:06:28.737Z,14.96
2018-04-30T01:07:28.985Z,14.99
2018-04-30T01:08:29.229Z,15.02
2018-04-30T01:09:29.452Z,14.98
2018-04-30T01:10:29.680Z,15.03
2018-04-30T01:11:29.921Z,15.01
2018-04-30T01:12:30.159Z,15.20
2018-04-30T01:13:30.414Z,15.14
2018-04-30T01:14:30.666Z,15.34
2018-04-30T01:15:30.870Z,15.41
2018-04-30T01:16:31.124Z,15.39
2018-04-30T01:17:31.382Z,15.36
2018-04-30T01:18:31.595Z,15.28
2018-04-30T01:19:31.863Z,15.19
2018-04-30T01:20:32.099Z,15.11
2018-04-30T01:21:32.351Z,15.11
2018-04-30T01:22:32.586Z,15.07
2018-04-30T01:23:32.824Z,15.06
2018-04-30T01:24:33.073Z,14.99
2018-04-30T01:25:33.287Z,14.88
2018-04-30T01:26:33.537Z,14.78
2018-04-30T01:27:33.785Z,14.75
2018-04-30T01:28:34.018Z,14.69
2018-04-30T01:29:34.246Z,14.70
2018-04-30T01:30:34.486Z,14.69
2018-04-30T01:31:34.744Z,14.80
2018-04-30T01:32:34.979Z,14.84
2018-04-30T01:33:35.215Z,14.96
2018-04-30T01:34:35.456Z,15.07
2018-04-30T01:35:35.696Z,15.65
2018-04-30T01:36:35.920Z,16.14
2018-04-30T01:37:36.182Z,16.31
2018-04-30T01:38:36.385Z,16.30
2018-04-30T01:39:36.629Z,16.31
2018-04-30T01:40:36.893Z,16.42
2018-04-30T01:41:37.134Z,16.57
2018-04-30T01:42:37.360Z,16.60
2018-04-30T01:43:37.597Z,16.67
2018-04-30T01:44:37.860Z,16.93
2018-04-30T01:45:38.080Z,17.04
2018-04-30T01:46:38.301Z,17.23
2018-04-30T01:47:38.540Z,17.18
2018-04-30T01:48:38.777Z,17.16
2018-04-30T01:49:39.015Z,17.11
2018-04-30T01:50:39.252Z,17.03
2018-04-30T01:51:39.531Z,16.89
2018-04-30T01:52:39.744Z,16.82
2018-04-30T01:53:39.985Z,16.81
2018-04-30T01:54:40.209Z,16.83
2018-04-30T01:55:40.441Z,16.98
2018-04-30T01:56:40.701Z,17.22
2018-04-30T01:57:40.934Z,17.23
2018-04-30T01:58:41.167Z,17.26
2018-04-30T01:59:41.417Z,17.21
2018-04-30T02:00:41.657Z,17.21
2018-04-30T02:01:41.902Z,17.18
2018-04-30T02:02:42.155Z,17.43
2018-04-30T02:03:42.378Z,17.49
2018-04-30T02:04:42.605Z,17.59
2018-04-30T02:05:42.841Z,17.58
2018-04-30T02:06:43.076Z,17.71
2018-04-30T02:07:43.315Z,17.64
2018-04-30T02:08:43.556Z,17.72
2018-04-30T02:09:43.791Z,17.87
2018-04-30T02:10:44.110Z,17.87
2018-04-30T02:11:44.308Z,17.81
2018-04-30T02:12:44.525Z,17.82
2018-04-30T02:13:44.769Z,17.79
2018-04-30T02:14:45.019Z,17.87
2018-04-30T02:15:45.249Z,17.87
2018-04-30T02:16:45.514Z,17.71
2018-04-30T02:17:45.757Z,17.82
2018-04-30T02:18:46.002Z,17.72
2018-04-30T02:19:46.244Z,17.72
2018-04-30T02:20:46.484Z,17.66
2018-04-30T02:21:46.730Z,17.68
2018-04-30T02:22:46.990Z,17.49
2018-04-30T02:23:47.211Z,17.44
2018-04-30T02:24:47.467Z,17.38
2018-04-30T02:25:47.704Z,17.34
2018-04-30T02:26:47.939Z,17.37
2018-04-30T02:27:48.167Z,17.36
2018-04-30T02:28:48.406Z,17.28
2018-04-30T02:29:48.624Z,17.25
2018-04-30T02:30:48.884Z,17.15
2018-04-30T02:31:49.139Z,17.23
2018-04-30T02:32:49.365Z,17.07
2018-04-30T02:33:49.614Z,17.08
2018-04-30T02:34:49.847Z,16.89
2018-04-30T02:35:50.095Z,16.86
2018-04-30T02:36:50.322Z,16.83
2018-04-30T02:37:50.570Z,16.83
2018-04-30T02:38:50.808Z,16.76
2018-04-30T02:39:51.071Z,16.79
2018-04-30T02:40:51.290Z,16.68
2018-04-30T02:41:51.516Z,16.58
2018-04-30T02:42:51.769Z,16.63
2018-04-30T02:43:52.015Z,16.60
2018-04-30T02:44:52.252Z,16.57
2018-04-30T02:45:52.500Z,16.49
2018-04-30T02:46:52.747Z,16.58
2018-04-30T02:47:52.974Z,16.41
2018-04-30T02:48:53.218Z,16.45
2018-04-30T02:49:53.473Z,16.33
2018-04-30T02:50:53.710Z,16.34
2018-04-30T02:51:53.928Z,16.31
2018-04-30T02:52:54.149Z,16.28
2018-04-30T02:53:54.423Z,16.30
2018-04-30T02:54:54.659Z,16.15
2018-04-30T02:55:54.918Z,16.12
2018-04-30T02:56:55.139Z,16.05
2018-04-30T02:57:55.366Z,16.08
2018-04-30T02:58:55.620Z,16.08
2018-04-30T02:59:55.876Z,16.02
2018-04-30T03:00:56.104Z,15.94
2018-04-30T03:01:56.362Z,15.96
2018-04-30T03:02:56.578Z,15.94
2018-04-30T03:03:56.822Z,15.93
2018-04-30T03:04:57.049Z,15.89
2018-04-30T03:05:57.278Z,15.89
2018-04-30T03:06:57.525Z,15.86
2018-04-30T03:07:57.798Z,15.82
2018-04-30T03:08:58.039Z,15.84
2018-04-30T03:09:58.264Z,15.87
2018-04-30T03:10:58.477Z,15.82
2018-04-30T03:11:58.729Z,15.75
2018-04-30T03:12:58.962Z,15.71
2018-04-30T03:13:59.201Z,15.74
2018-04-30T03:14:59.424Z,15.75
2018-04-30T03:15:59.668Z,15.76
2018-04-30T03:16:59.926Z,15.65
2018-04-30T03:18:00.159Z,15.65
2018-04-30T03:19:00.413Z,15.69
2018-04-30T03:20:00.671Z,15.51
2018-04-30T03:21:00.891Z,15.62
2018-04-30T03:22:01.151Z,15.53
2018-04-30T03:23:01.423Z,15.53
2018-04-30T03:24:01.639Z,15.49
2018-04-30T03:25:01.902Z,15.50
2018-04-30T03:26:02.121Z,15.47
2018-04-30T03:27:02.356Z,15.50
2018-04-30T03:28:02.592Z,15.50
2018-04-30T03:29:02.824Z,15.46
2018-04-30T03:30:03.066Z,15.53
2018-04-30T03:31:03.321Z,15.54
2018-04-30T03:32:03.557Z,15.50
2018-04-30T03:33:03.782Z,15.50
2018-04-30T03:34:04.024Z,15.41
2018-04-30T03:35:04.254Z,15.44
2018-04-30T03:36:04.500Z,15.39
2018-04-30T03:37:04.716Z,15.39
2018-04-30T03:38:04.964Z,15.39
2018-04-30T03:39:05.203Z,15.43
2018-04-30T03:40:05.469Z,15.43
2018-04-30T03:41:05.684Z,15.41
2018-04-30T03:42:05.948Z,15.34
2018-04-30T03:43:06.669Z,15.28
2018-04-30T03:44:06.453Z,15.21
2018-04-30T03:45:06.700Z,15.23
2018-04-30T03:46:06.923Z,15.34
2018-04-30T03:47:07.176Z,15.21
2018-04-30T03:48:07.412Z,15.19
2018-04-30T03:49:07.656Z,15.17
2018-04-30T03:50:07.885Z,15.03
2018-04-30T03:51:08.114Z,15.10
2018-04-30T03:52:08.364Z,15.07
2018-04-30T03:53:08.589Z,15.03
2018-04-30T03:54:08.821Z,14.98
2018-04-30T03:55:09.061Z,14.98
2018-04-30T03:56:09.301Z,14.88
2018-04-30T03:57:09.533Z,14.88
2018-04-30T03:58:09.786Z,14.77
2018-04-30T03:59:10.032Z,14.83
2018-04-30T04:00:10.266Z,14.73
2018-04-30T04:01:10.542Z,14.65
2018-04-30T04:02:10.768Z,14.64
2018-04-30T04:03:11.022Z,14.60
2018-04-30T04:04:11.283Z,14.46
2018-04-30T04:05:11.478Z,14.42
2018-04-30T04:06:11.718Z,14.39
2018-04-30T04:07:11.956Z,14.42
2018-04-30T04:08:12.201Z,14.39
2018-04-30T04:09:12.439Z,14.40
2018-04-30T04:10:12.680Z,14.39
2018-04-30T04:11:12.920Z,14.35
2018-04-30T04:12:13.162Z,14.40
2018-04-30T04:13:13.386Z,14.24
2018-04-30T04:14:13.631Z,14.21
2018-04-30T04:15:13.875Z,14.27
2018-04-30T04:16:14.112Z,14.22
2018-04-30T04:17:14.361Z,14.24
2018-04-30T04:18:14.600Z,14.24
2018-04-30T04:19:14.823Z,14.14
2018-04-30T04:20:15.074Z,14.10
2018-04-30T04:21:15.304Z,14.25
2018-04-30T04:22:15.560Z,14.14
2018-04-30T04:23:15.777Z,14.14
2018-04-30T04:24:16.031Z,14.22
2018-04-30T04:25:16.256Z,14.10
2018-04-30T04:26:16.504Z,14.14
2018-04-30T04:27:16.744Z,14.10
2018-04-30T04:28:16.985Z,14.17
2018-04-30T04:29:17.216Z,14.14
2018-04-30T04:30:17.473Z,14.10
2018-04-30T04:31:17.699Z,14.15
2018-04-30T04:32:17.938Z,14.17
2018-04-30T04:33:18.178Z,14.07
2018-04-30T04:34:18.415Z,14.15
2018-04-30T04:35:18.658Z,14.15
2018-04-30T04:36:18.900Z,14.14
2018-04-30T04:37:19.174Z,14.21
2018-04-30T04:38:19.387Z,14.12
2018-04-30T04:39:19.639Z,14.14
2018-04-30T04:40:19.857Z,14.12
2018-04-30T04:41:20.127Z,14.15
2018-04-30T04:42:20.344Z,14.24
2018-04-30T04:43:20.588Z,14.24
2018-04-30T04:44:20.825Z,14.27
2018-04-30T04:45:21.044Z,14.25
2018-04-30T04:46:21.293Z,14.25
2018-04-30T04:47:21.581Z,14.25
2018-04-30T04:48:21.754Z,14.25
2018-04-30T04:49:21.996Z,14.35
2018-04-30T04:50:22.272Z,14.39
2018-04-30T04:51:22.516Z,14.36
2018-04-30T04:52:22.764Z,14.33
2018-04-30T04:53:22.972Z,14.36
2018-04-30T04:54:23.209Z,14.35
2018-04-30T04:55:23.486Z,14.43
2018-04-30T04:56:23.667Z,14.45
2018-04-30T04:57:23.897Z,14.37
2018-04-30T04:58:24.157Z,14.37
2018-04-30T04:59:24.413Z,14.39
2018-04-30T05:00:24.646Z,14.40
2018-04-30T05:01:24.888Z,14.40
2018-04-30T05:02:25.205Z,14.51
2018-04-30T05:03:25.365Z,14.50
2018-04-30T05:04:25.607Z,14.51
2018-04-30T05:05:25.840Z,14.52
2018-04-30T05:06:26.072Z,14.42
2018-04-30T05:07:26.312Z,14.45
2018-04-30T05:08:26.551Z,14.45
2018-04-30T05:09:26.818Z,14.37
2018-04-30T05:10:27.082Z,14.39
2018-04-30T05:11:27.489Z,14.42
2018-04-30T05:12:27.763Z,14.39
2018-04-30T05:13:28.009Z,14.37
2018-04-30T05:14:28.240Z,14.37
2018-04-30T05:15:28.523Z,14.42
2018-04-30T05:16:28.732Z,14.25
2018-04-30T05:17:29.025Z,14.25
2018-04-30T05:18:29.255Z,14.22
2018-04-30T05:19:29.482Z,14.15
2018-04-30T05:20:39.006Z,14.12
2018-04-30T05:21:30.958Z,14.17
2018-04-30T05:22:31.152Z,14.15
2018-04-30T05:23:30.662Z,14.12
2018-04-30T05:24:30.901Z,14.15
2018-04-30T05:25:31.134Z,14.12
2018-04-30T05:26:31.409Z,14.09
2018-04-30T05:27:31.628Z,14.10
2018-04-30T05:28:31.858Z,14.06
2018-04-30T05:29:32.105Z,14.18
2018-04-30T05:30:32.335Z,14.12
2018-04-30T05:31:32.594Z,14.00
2018-04-30T05:32:32.831Z,13.96
2018-04-30T05:33:33.246Z,13.95
2018-04-30T05:34:33.560Z,13.99
2018-04-30T05:35:33.894Z,13.97
2018-04-30T05:36:34.153Z,13.92
2018-04-30T05:37:34.487Z,13.89
2018-04-30T05:38:34.882Z,13.87
2018-04-30T05:39:35.267Z,13.91
2018-04-30T05:40:35.613Z,13.87
2018-04-30T05:41:35.919Z,13.82
2018-04-30T05:42:36.156Z,13.73
2018-04-30T05:43:36.416Z,13.60
2018-04-30T05:44:36.674Z,13.70
2018-04-30T05:45:36.915Z,13.67
2018-04-30T05:46:37.192Z,13.51
2018-04-30T05:47:37.442Z,13.46
2018-04-30T05:48:37.865Z,13.52
2018-04-30T05:49:38.123Z,13.54
2018-04-30T05:50:38.411Z,13.52
2018-04-30T05:51:38.676Z,13.49
2018-04-30T05:52:38.923Z,13.48
2018-04-30T05:53:39.158Z,13.46
2018-04-30T05:54:39.399Z,13.45
2018-04-30T05:55:39.621Z,13.38
2018-04-30T05:56:39.864Z,13.44
2018-04-30T05:57:40.108Z,13.42
2018-04-30T05:58:40.371Z,13.42
2018-04-30T05:59:40.670Z,13.30
2018-04-30T06:00:40.904Z,13.30
2018-04-30T06:01:41.145Z,13.30
2018-04-30T06:02:41.406Z,13.39
2018-04-30T06:03:41.616Z,13.30
2018-04-30T06:04:41.872Z,13.32
2018-04-30T06:05:42.113Z,13.28
2018-04-30T06:06:42.469Z,13.30
2018-04-30T06:07:42.668Z,13.30
2018-04-30T06:08:42.890Z,13.38
2018-04-30T06:09:43.125Z,13.26
2018-04-30T06:10:43.376Z,13.23
2018-04-30T06:11:43.662Z,13.26
2018-04-30T06:12:43.910Z,13.30
2018-04-30T06:13:44.147Z,13.25
2018-04-30T06:14:44.446Z,13.36
2018-04-30T06:15:44.739Z,13.41
2018-04-30T06:16:44.968Z,13.30
2018-04-30T06:17:45.199Z,13.36
2018-04-30T06:18:45.444Z,13.32
2018-04-30T06:19:45.684Z,13.42
2018-04-30T06:20:45.922Z,13.57
2018-04-30T06:21:46.162Z,13.55
2018-04-30T06:22:46.382Z,13.51
2018-04-30T06:23:46.631Z,13.60
2018-04-30T06:24:46.871Z,13.62
2018-04-30T06:25:47.103Z,13.67
2018-04-30T06:26:47.488Z,13.84
2018-04-30T06:27:47.611Z,13.78
2018-04-30T06:28:47.863Z,13.84
2018-04-30T06:29:48.112Z,13.88
2018-04-30T06:30:48.393Z,13.82
2018-04-30T06:31:48.624Z,14.04
2018-04-30T06:32:48.862Z,14.12
2018-04-30T06:33:49.105Z,14.17
2018-04-30T06:34:49.465Z,14.27
2018-04-30T06:35:49.652Z,14.28
2018-04-30T06:36:49.852Z,14.36
2018-04-30T06:37:58.038Z,14.42
2018-04-30T06:38:50.532Z,14.55
2018-04-30T06:39:50.626Z,14.55
2018-04-30T06:40:50.861Z,14.52
2018-04-30T06:41:51.100Z,14.46
2018-04-30T06:42:51.333Z,14.62
2018-04-30T06:43:51.614Z,14.61
2018-04-30T06:44:51.850Z,14.52
2018-04-30T06:45:52.090Z,14.37
2018-04-30T06:46:52.335Z,14.35
2018-04-30T06:47:52.569Z,14.20
2018-04-30T06:48:52.825Z,14.28
2018-04-30T06:49:53.068Z,14.24
2018-04-30T06:50:53.294Z,14.25
2018-04-30T06:51:53.553Z,14.35
2018-04-30T06:52:53.798Z,14.43
2018-04-30T06:53:54.045Z,14.57
2018-04-30T06:54:54.302Z,14.42
2018-04-30T06:55:54.533Z,14.58
2018-04-30T06:56:54.777Z,14.51
2018-04-30T06:57:55.017Z,14.62
2018-04-30T06:58:55.263Z,14.57
2018-04-30T06:59:55.515Z,14.46
2018-04-30T07:00:55.837Z,14.58
2018-04-30T07:01:56.032Z,14.64
2018-04-30T07:02:56.345Z,14.55
2018-04-30T07:03:56.566Z,14.60
2018-04-30T07:04:56.829Z,14.92
2018-04-30T07:05:57.178Z,15.03
2018-04-30T07:06:57.303Z,15.39
2018-04-30T07:07:57.580Z,16.24
2018-04-30T07:08:57.877Z,16.20
2018-04-30T07:09:58.134Z,15.38
2018-04-30T07:10:58.372Z,15.17
2018-04-30T07:11:58.679Z,15.65
2018-04-30T07:12:58.889Z,15.41
2018-04-30T07:13:59.135Z,15.20
2018-04-30T07:14:59.370Z,15.11
2018-04-30T07:15:59.642Z,14.89
2018-04-30T07:16:59.900Z,14.78
2018-04-30T07:18:00.152Z,14.77
2018-04-30T07:19:00.473Z,15.10
2018-04-30T07:20:00.773Z,14.86
2018-04-30T07:21:00.928Z,14.64
2018-04-30T07:22:01.162Z,14.64
2018-04-30T07:23:01.408Z,14.39
2018-04-30T07:24:01.648Z,14.35
2018-04-30T07:25:01.945Z,14.29
2018-04-30T07:26:02.169Z,14.20
2018-04-30T07:27:02.427Z,14.10
2018-04-30T07:28:02.679Z,14.00
2018-04-30T07:29:02.956Z,13.87
2018-04-30T07:30:03.207Z,13.89
2018-04-30T07:31:03.439Z,13.89
2018-04-30T07:32:03.685Z,13.71
2018-04-30T07:33:03.953Z,13.71
2018-04-30T07:34:04.165Z,13.66
2018-04-30T07:35:04.419Z,13.67
2018-04-30T07:36:04.740Z,13.57
2018-04-30T07:37:04.956Z,13.49
2018-04-30T07:38:05.182Z,13.44
2018-04-30T07:39:05.476Z,13.41
2018-04-30T07:40:05.653Z,13.30
2018-04-30T07:41:05.914Z,13.23
2018-04-30T07:42:06.145Z,13.26
2018-04-30T07:43:06.396Z,13.29
2018-04-30T07:44:06.646Z,13.36
2018-04-30T07:45:06.873Z,13.33
2018-04-30T07:46:07.117Z,13.22
2018-04-30T07:47:07.364Z,13.26
2018-04-30T07:48:07.597Z,13.30
2018-04-30T07:49:07.945Z,13.28
2018-04-30T07:50:08.123Z,13.17
2018-04-30T07:51:08.362Z,13.17
2018-04-30T07:52:08.606Z,13.05
2018-04-30T07:53:09.847Z,13.11
2018-04-30T07:54:09.183Z,13.08
2018-04-30T07:55:09.415Z,13.15
2018-04-30T07:56:09.647Z,13.12
2018-04-30T07:57:09.879Z,13.05
2018-04-30T07:58:10.146Z,13.04
2018-04-30T07:59:10.412Z,13.01
2018-04-30T08:00:10.653Z,13.00
2018-04-30T08:01:10.897Z,12.97
2018-04-30T08:02:11.137Z,13.03
2018-04-30T08:03:11.426Z,13.05
2018-04-30T08:04:11.606Z,13.01
2018-04-30T08:05:11.841Z,13.12
2018-04-30T08:06:12.216Z,13.01
2018-04-30T08:07:12.439Z,12.95
2018-04-30T08:08:12.696Z,12.93
2018-04-30T08:09:13.070Z,12.85
2018-04-30T08:10:13.257Z,12.79
2018-04-30T08:11:13.518Z,12.79
2018-04-30T08:12:13.750Z,12.71
2018-04-30T08:13:14.035Z,12.78
2018-04-30T08:14:14.246Z,12.79
2018-04-30T08:15:14.476Z,12.78
2018-04-30T08:16:14.732Z,12.70
2018-04-30T08:17:14.992Z,12.75
2018-04-30T08:18:15.357Z,12.72
2018-04-30T08:19:15.562Z,12.75
2018-04-30T08:20:15.786Z,12.68
2018-04-30T08:21:16.023Z,12.75
2018-04-30T08:22:16.317Z,12.78
2018-04-30T08:23:16.709Z,12.85
2018-04-30T08:24:16.967Z,12.79
2018-04-30T08:25:17.322Z,12.77
2018-04-30T08:26:17.569Z,12.71
2018-04-30T08:27:17.800Z,12.70
2018-04-30T08:28:18.077Z,12.70
2018-04-30T08:29:18.299Z,12.74
2018-04-30T08:30:18.538Z,12.79
2018-04-30T08:31:18.769Z,12.78
2018-04-30T08:32:19.024Z,12.78
2018-04-30T08:33:19.281Z,12.82
2018-04-30T08:34:19.526Z,12.78
2018-04-30T08:35:19.772Z,12.68
2018-04-30T08:36:20.003Z,12.77
2018-04-30T08:37:20.258Z,12.86
2018-04-30T08:38:20.508Z,12.74
2018-04-30T08:39:20.742Z,12.89
2018-04-30T08:40:21.033Z,12.78
2018-04-30T08:41:21.265Z,12.75
2018-04-30T08:42:21.529Z,12.89
2018-04-30T08:43:21.760Z,12.75
2018-04-30T08:44:22.009Z,12.79
2018-04-30T08:45:22.248Z,12.89
2018-04-30T08:46:22.479Z,12.89
2018-04-30T08:47:22.721Z,12.95
2018-04-30T08:48:23.017Z,12.93
2018-04-30T08:49:23.245Z,12.95
2018-04-30T08:50:23.508Z,13.07
2018-04-30T08:51:23.812Z,12.97
2018-04-30T08:52:24.061Z,12.96
2018-04-30T08:53:24.338Z,13.07
2018-04-30T08:54:24.639Z,13.10
2018-04-30T08:55:24.899Z,13.14
2018-04-30T08:56:25.179Z,13.23
2018-04-30T08:57:25.432Z,13.20
2018-04-30T08:58:25.707Z,13.30
2018-04-30T08:59:25.933Z,13.36
2018-04-30T09:00:26.231Z,13.44
2018-04-30T09:01:26.405Z,13.44
2018-04-30T09:02:26.729Z,13.62
2018-04-30T09:03:26.932Z,13.55
2018-04-30T09:04:27.251Z,13.28
2018-04-30T09:05:27.505Z,13.25
2018-04-30T09:06:27.735Z,13.05
2018-04-30T09:07:28.040Z,13.12
2018-04-30T09:08:28.278Z,13.00
2018-04-30T09:09:28.538Z,13.01
2018-04-30T09:10:28.775Z,13.07
2018-04-30T09:11:29.018Z,13.20
2018-04-30T09:12:29.235Z,13.19
2018-04-30T09:13:29.462Z,13.19
2018-04-30T09:14:29.693Z,13.05
2018-04-30T09:15:29.968Z,13.05
2018-04-30T09:16:30.231Z,13.01
2018-04-30T09:17:30.512Z,13.08
2018-04-30T09:18:30.752Z,13.03
2018-04-30T09:19:31.014Z,12.96
2018-04-30T09:20:31.299Z,12.92
2018-04-30T09:21:31.517Z,12.85
2018-04-30T09:22:31.791Z,12.82
2018-04-30T09:23:32.034Z,12.89
2018-04-30T09:24:32.260Z,13.04
2018-04-30T09:25:32.541Z,13.19
2018-04-30T09:26:32.789Z,13.33
2018-04-30T09:27:33.107Z,13.44
2018-04-30T09:28:33.315Z,13.64
2018-04-30T09:29:33.553Z,13.88
2018-04-30T09:30:33.793Z,14.24
2018-04-30T09:31:34.128Z,14.64
2018-04-30T09:32:34.410Z,14.77
2018-04-30T09:33:34.657Z,15.01
2018-04-30T09:34:34.892Z,15.38
2018-04-30T09:35:35.207Z,16.56
2018-04-30T09:36:35.456Z,17.93
2018-04-30T09:37:35.743Z,17.82
2018-04-30T09:38:35.957Z,17.55
2018-04-30T09:39:36.180Z,17.15
2018-04-30T09:40:36.480Z,16.76
2018-04-30T09:41:36.723Z,16.07
2018-04-30T09:42:36.996Z,15.21
2018-04-30T09:43:37.275Z,14.88
2018-04-30T09:44:37.531Z,14.69
2018-04-30T09:45:37.773Z,14.39
2018-04-30T09:46:38.049Z,14.25
2018-04-30T09:47:38.370Z,14.39
2018-04-30T09:48:38.634Z,14.07
2018-04-30T09:49:38.900Z,14.20
2018-04-30T09:50:39.196Z,14.29
2018-04-30T09:51:39.518Z,14.43
2018-04-30T09:52:39.765Z,15.02
2018-04-30T09:53:40.006Z,16.20
2018-04-30T09:54:40.254Z,16.56
2018-04-30T09:55:40.549Z,17.28
2018-04-30T09:56:40.791Z,18.33
2018-04-30T09:57:41.080Z,17.49
2018-04-30T09:58:41.305Z,17.96
2018-04-30T09:59:41.556Z,18.99
2018-04-30T10:00:41.795Z,18.00
2018-04-30T10:01:42.063Z,17.38
2018-04-30T10:02:42.301Z,16.98
2018-04-30T10:03:42.610Z,16.31
2018-04-30T10:04:42.887Z,15.39
2018-04-30T10:05:43.085Z,15.14
2018-04-30T10:06:43.334Z,14.88
2018-04-30T10:07:43.608Z,14.96
2018-04-30T10:08:43.884Z,14.83
2018-04-30T10:09:44.217Z,14.72
2018-04-30T10:10:44.447Z,14.57
2018-04-30T10:11:44.680Z,14.45
2018-04-30T10:12:44.939Z,14.21
2018-04-30T10:13:45.173Z,14.03
2018-04-30T10:14:45.416Z,14.03
2018-04-30T10:15:45.653Z,13.97
2018-04-30T10:16:45.955Z,14.14
2018-04-30T10:17:46.185Z,14.33
2018-04-30T10:18:46.419Z,14.43
2018-04-30T10:19:46.651Z,14.39
2018-04-30T10:20:46.874Z,14.42
2018-04-30T10:21:47.125Z,14.61
2018-04-30T10:22:47.367Z,14.70
2018-04-30T10:23:47.681Z,14.99
2018-04-30T10:24:47.848Z,15.72
2018-04-30T10:25:48.109Z,16.60
2018-04-30T10:26:48.327Z,16.64
2018-04-30T10:27:48.575Z,16.83
2018-04-30T10:28:48.818Z,16.78
2018-04-30T10:29:49.071Z,18.03
2018-04-30T10:30:49.307Z,17.25
2018-04-30T10:31:49.553Z,16.71
2018-04-30T10:32:49.804Z,16.45
2018-04-30T10:33:50.050Z,16.34
2018-04-30T10:34:50.292Z,16.78
2018-04-30T10:35:50.537Z,16.48
2018-04-30T10:36:50.791Z,16.30
2018-04-30T10:37:51.067Z,17.01
2018-04-30T10:38:51.281Z,16.97
2018-04-30T10:39:51.536Z,16.45
2018-04-30T10:40:51.778Z,16.83
2018-04-30T10:41:52.023Z,16.68
2018-04-30T10:42:52.272Z,16.75
2018-04-30T10:43:52.517Z,16.85
2018-04-30T10:44:52.766Z,18.57
2018-04-30T10:45:53.024Z,19.61
2018-04-30T10:46:53.260Z,19.25
2018-04-30T10:47:53.506Z,18.51
2018-04-30T10:48:53.754Z,17.28
2018-04-30T10:49:54.024Z,16.48
2018-04-30T10:50:54.244Z,15.94
2018-04-30T10:51:54.490Z,15.75
2018-04-30T10:52:54.721Z,15.56
2018-04-30T10:53:54.978Z,15.16
2018-04-30T10:54:55.205Z,15.13
2018-04-30T10:55:55.464Z,14.89
2018-04-30T10:56:55.698Z,14.70
2018-04-30T10:57:55.945Z,14.69
2018-04-30T10:58:56.193Z,14.69
2018-04-30T10:59:56.437Z,14.73
2018-04-30T11:00:56.684Z,14.88
2018-04-30T11:01:56.930Z,15.14
2018-04-30T11:02:57.178Z,16.58
2018-04-30T11:03:57.411Z,17.07
2018-04-30T11:04:57.689Z,16.57
2018-04-30T11:05:57.938Z,16.24
2018-04-30T11:06:58.261Z,16.48
2018-04-30T11:07:58.471Z,18.81
2018-04-30T11:08:58.722Z,19.22
2018-04-30T11:09:59.061Z,20.11
2018-04-30T11:10:59.319Z,20.28
2018-04-30T11:11:59.592Z,21.52
2018-04-30T11:12:59.903Z,21.69
2018-04-30T11:14:00.147Z,20.94
2018-04-30T11:15:00.376Z,21.98
2018-04-30T11:16:00.617Z,19.96
2018-04-30T11:17:00.857Z,18.92
2018-04-30T11:18:01.107Z,18.18
2018-04-30T11:19:01.358Z,17.84
2018-04-30T11:20:01.606Z,17.63
2018-04-30T11:21:01.855Z,18.50
2018-04-30T11:22:02.117Z,17.97
2018-04-30T11:23:02.357Z,17.90
2018-04-30T11:24:02.599Z,17.36
2018-04-30T11:25:02.853Z,18.87
2018-04-30T11:26:03.098Z,18.58
2018-04-30T11:27:03.344Z,17.86
2018-04-30T11:28:03.596Z,17.12
2018-04-30T11:29:03.829Z,16.64
2018-04-30T11:30:04.089Z,17.06
2018-04-30T11:31:04.338Z,17.16
2018-04-30T11:32:04.586Z,17.41
2018-04-30T11:33:04.836Z,17.78
2018-04-30T11:34:05.149Z,16.94
2018-04-30T11:35:05.333Z,16.78
2018-04-30T11:36:05.577Z,17.25
2018-04-30T11:37:05.819Z,17.14
2018-04-30T11:38:06.053Z,18.25
2018-04-30T11:39:06.302Z,18.91
2018-04-30T11:40:06.665Z,20.10
2018-04-30T11:41:06.788Z,20.62
2018-04-30T11:42:07.034Z,21.17
2018-04-30T11:43:07.283Z,20.95
2018-04-30T11:44:07.533Z,20.48
2018-04-30T11:45:07.779Z,20.82
2018-04-30T11:46:08.027Z,20.74
2018-04-30T11:47:08.323Z,20.57
2018-04-30T11:48:08.508Z,20.98
2018-04-30T11:49:08.767Z,20.99
2018-04-30T11:50:09.004Z,20.50
2018-04-30T11:51:09.292Z,19.37
2018-04-30T11:52:09.540Z,19.94
2018-04-30T11:53:09.798Z,18.81
2018-04-30T11:54:10.046Z,18.10
2018-04-30T11:55:10.286Z,17.74
2018-04-30T11:56:10.525Z,17.51
2018-04-30T11:57:10.781Z,17.46
2018-04-30T11:58:11.031Z,17.40
2018-04-30T11:59:11.279Z,19.39
2018-04-30T12:00:11.529Z,18.15
2018-04-30T12:01:11.784Z,19.84
2018-04-30T12:02:12.032Z,20.67
2018-04-30T12:03:12.278Z,19.86
2018-04-30T12:04:12.528Z,19.61
2018-04-30T12:05:12.775Z,20.50
2018-04-30T12:06:13.025Z,20.72
2018-04-30T12:07:13.272Z,20.11
2018-04-30T12:08:13.524Z,20.95
2018-04-30T12:09:13.772Z,19.26
2018-04-30T12:10:14.023Z,18.03
2018-04-30T12:11:14.279Z,17.33
2018-04-30T12:12:14.517Z,17.25
2018-04-30T12:13:14.768Z,16.94
2018-04-30T12:14:15.018Z,17.04
2018-04-30T12:15:15.267Z,17.19
2018-04-30T12:16:15.518Z,17.15
2018-04-30T12:17:15.767Z,19.18
2018-04-30T12:18:16.018Z,20.14
2018-04-30T12:19:16.268Z,20.88
2018-04-30T12:20:16.519Z,20.80
2018-04-30T12:21:16.765Z,20.87
2018-04-30T12:22:17.084Z,19.81
2018-04-30T12:23:17.265Z,18.48
2018-04-30T12:24:17.513Z,17.81
2018-04-30T12:25:17.762Z,17.55
2018-04-30T12:26:18.014Z,18.30
2018-04-30T12:27:18.266Z,20.06
2018-04-30T12:28:18.509Z,20.66
2018-04-30T12:29:18.758Z,20.97
2018-04-30T12:30:19.007Z,20.97
2018-04-30T12:31:19.258Z,21.03
2018-04-30T12:32:19.508Z,21.03
2018-04-30T12:33:19.766Z,20.85
2018-04-30T12:34:20.012Z,20.82
2018-04-30T12:35:20.261Z,21.19
2018-04-30T12:36:20.511Z,20.24
2018-04-30T12:37:20.760Z,20.43
2018-04-30T12:38:21.009Z,20.21
2018-04-30T12:39:21.256Z,20.55
2018-04-30T12:40:21.504Z,20.47
2018-04-30T12:41:21.761Z,20.66
2018-04-30T12:42:22.014Z,20.01
2018-04-30T12:43:22.265Z,20.98
2018-04-30T12:44:22.518Z,20.89
2018-04-30T12:45:22.751Z,19.81
2018-04-30T12:46:23.056Z,19.76
2018-04-30T12:47:23.260Z,18.94
2018-04-30T12:48:23.509Z,19.91
2018-04-30T12:49:23.775Z,18.98
2018-04-30T12:50:24.013Z,18.51
2018-04-30T12:51:24.274Z,17.81
2018-04-30T12:52:24.519Z,17.56
2018-04-30T12:53:24.766Z,17.36
2018-04-30T12:54:25.019Z,17.06
2018-04-30T12:55:25.292Z,17.15